Weather History for KARV - February, 2014

Change the Weather History Date:

Thursday, February 20, 2014

  Actual Average Record
Temperature  
Mean Temperature 32 °F -  
Max Temperature 39 °F 29 °F 59 °F (1930)
Min Temperature 26 °F 6 °F -33 °F (1929)
Degree Days  
Heating Degree Days 32    
Moisture  
Dew Point 25 °F    
Average Humidity 75    
Maximum Humidity 94    
Minimum Humidity 52    
Precipitation  
Precipitation 0.34 in - - ()
Sea Level Pressure  
Sea Level Pressure 29.55 in    
Wind  
Wind Speed 6 mph (ESE)    
Max Wind Speed 20 mph    
Max Gust Speed 30 mph    
Visibility 8 miles    
Events Snow    
Averages and records for this station are not official NWS values.
T = Trace of Precipitation, MM = Missing Value Source: NWS Daily Summary

Daily Weather History Graph

Daily Weather History Graph

Search for Another Location

Airport or City:

Trip Planner

Search our weather history database for the weather conditions in past years. The results will help you decide how hot, cold, wet, or windy it might be!

Date:

Astronomy

Feb. 20, 2014 Rise Set
Actual Time 6:53 AM CST 5:32 PM CST
Civil Twilight 6:22 AM CST 6:03 PM CST
Nautical Twilight 5:48 AM CST 6:37 PM CST
Astronomical Twilight 5:13 AM CST 7:12 PM CST
Moon 11:47 PM CST (2/20) 9:17 AM CST (2/20)
Length of Visible Light 11h 40m
Length of Day
10h 39m
Waning Gibbous, 70% of the Moon is Illuminated
Feb 20
Waning Gibbous
Feb 22
Last Quarter
Mar 1
New
Mar 8
First Quarter
Mar 16
Full

Hourly Weather History & Observations

Time (CST) Temp. Windchill Dew Point Humidity Pressure Visibility Wind Dir Wind Speed Gust Speed Precip Events Conditions
12:13 AM 32.0 °F - 24.8 °F 75% 29.79 in 10.0 mi Calm Calm - N/A   Overcast
12:15 AM 31.8 °F - 24.1 °F 73% 29.79 in 10.0 mi Calm Calm - N/A   Overcast
12:35 AM 32.0 °F 28.7 °F 24.8 °F 75% 29.79 in 7.0 mi SSE 3.5 mph - N/A   Overcast
12:55 AM 34.0 °F 29.8 °F 25.7 °F 72% 29.79 in 10.0 mi SSE 4.6 mph - N/A   Overcast
12:56 AM 33.8 °F 29.6 °F 26.6 °F 75% 29.79 in 10.0 mi SSE 4.6 mph - N/A   Overcast
1:14 AM 33.8 °F 30.8 °F 24.8 °F 70% 29.79 in 10.0 mi SSE 3.5 mph - N/A   Overcast
1:15 AM 33.6 °F 30.6 °F 25.3 °F 72% 29.79 in 10.0 mi SSE 3.5 mph - N/A   Overcast
1:35 AM 31.8 °F 28.5 °F 23.7 °F 72% 29.79 in 10.0 mi SE 3.5 mph - N/A   Scattered Clouds
1:45 AM 32.0 °F 26.4 °F 24.8 °F 75% 29.79 in 10.0 mi SE 5.8 mph - N/A   Scattered Clouds
1:55 AM 32.0 °F 26.4 °F 24.8 °F 75% 29.79 in 10.0 mi SE 5.8 mph - N/A   Clear
2:15 AM 29.8 °F 24.9 °F 23.5 °F 77% 29.78 in 10.0 mi SE 4.6 mph - N/A   Clear
2:35 AM 31.8 °F 26.2 °F 24.8 °F 75% 29.77 in 10.0 mi ESE 5.8 mph - N/A   Clear
2:38 AM 32.0 °F 27.5 °F 24.8 °F 75% 29.77 in 10.0 mi ESE 4.6 mph - N/A   Clear
2:54 AM 30.2 °F 25.4 °F 24.8 °F 80% 29.76 in 10.0 mi ESE 4.6 mph - N/A   Clear
2:55 AM 30.9 °F 26.2 °F 24.1 °F 76% 29.76 in 10.0 mi ESE 4.6 mph - N/A   Clear
3:14 AM 28.4 °F 22.2 °F 23.0 °F 80% 29.75 in 10.0 mi ESE 5.8 mph - N/A   Clear
3:15 AM 29.3 °F 23.2 °F 22.8 °F 77% 29.75 in 10.0 mi SE 5.8 mph - N/A   Clear
3:33 AM 28.4 °F 23.3 °F 21.2 °F 74% 29.74 in 10.0 mi SSE 4.6 mph - N/A   Clear
3:35 AM 28.4 °F 23.3 °F 21.6 °F 76% 29.74 in 10.0 mi SE 4.6 mph - N/A   Clear
3:55 AM 29.3 °F 24.3 °F 22.8 °F 77% 29.73 in 10.0 mi SE 4.6 mph - N/A   Clear
4:14 AM 26.6 °F 20.0 °F 21.2 °F 80% 29.73 in 10.0 mi ESE 5.8 mph - N/A   Clear
4:15 AM 26.6 °F 20.0 °F 20.8 °F 79% 29.73 in 10.0 mi ESE 5.8 mph - N/A   Clear
4:34 AM 28.4 °F 24.6 °F 21.2 °F 74% 29.72 in 10.0 mi ESE 3.5 mph - N/A   Clear
4:35 AM 29.3 °F 25.6 °F 22.6 °F 76% 29.72 in 10.0 mi ESE 3.5 mph - N/A   Clear
4:54 AM 26.6 °F 20.0 °F 19.4 °F 74% 29.72 in 10.0 mi ESE 5.8 mph - N/A   Clear
4:55 AM 26.6 °F 20.0 °F 20.5 °F 78% 29.72 in 10.0 mi ESE 5.8 mph - N/A   Clear
5:14 AM 26.6 °F 20.0 °F 21.2 °F 80% 29.72 in 10.0 mi ESE 5.8 mph - N/A   Clear
5:15 AM 27.5 °F 21.1 °F 21.0 °F 77% 29.72 in 10.0 mi ESE 5.8 mph - N/A   Clear
5:34 AM 26.6 °F 20.0 °F 19.4 °F 74% 29.71 in 10.0 mi ESE 5.8 mph - N/A   Clear
5:35 AM 26.6 °F 19.1 °F 20.1 °F 77% 29.71 in 10.0 mi ESE 6.9 mph - N/A   Clear
5:53 AM 26.6 °F 20.0 °F 19.4 °F 74% 29.71 in 10.0 mi SE 5.8 mph - N/A   Clear
5:55 AM 26.6 °F 20.0 °F 19.6 °F 75% 29.71 in 10.0 mi SE 5.8 mph - N/A   Clear
6:14 AM 26.6 °F 20.0 °F 19.4 °F 74% 29.70 in 10.0 mi ESE 5.8 mph - N/A   Clear
6:15 AM 26.6 °F 20.0 °F 19.4 °F 74% 29.70 in 10.0 mi ESE 5.8 mph - N/A   Clear
6:34 AM 26.6 °F 22.6 °F 19.4 °F 74% 29.70 in 10.0 mi ESE 3.5 mph - N/A   Clear
6:35 AM 26.8 °F 22.8 °F 18.7 °F 72% 29.70 in 10.0 mi ESE 3.5 mph - N/A   Clear
6:54 AM 26.6 °F 19.1 °F 17.6 °F 69% 29.70 in 10.0 mi ESE 6.9 mph - N/A   Clear
6:55 AM 26.2 °F 18.6 °F 18.5 °F 73% 29.70 in 10.0 mi ESE 6.9 mph - N/A   Clear
7:14 AM 28.4 °F 21.2 °F 19.4 °F 69% 29.69 in 10.0 mi ESE 6.9 mph - N/A   Scattered Clouds
7:34 AM 28.4 °F 21.2 °F 19.4 °F 69% 29.69 in 10.0 mi ESE 6.9 mph - N/A   Overcast
7:35 AM 29.3 °F 21.5 °F 19.9 °F 68% 29.69 in 10.0 mi ESE 8.1 mph - N/A   Overcast
7:54 AM 30.2 °F 22.6 °F 21.2 °F 69% 29.69 in 10.0 mi SE 8.1 mph - N/A   Overcast
7:55 AM 30.9 °F 22.8 °F 20.7 °F 66% 29.69 in 10.0 mi SE 9.2 mph - N/A   Overcast
8:14 AM 32.0 °F 24.2 °F 19.4 °F 60% 29.68 in 10.0 mi SE 9.2 mph - N/A   Overcast
8:15 AM 31.8 °F 23.9 °F 20.5 °F 63% 29.68 in 10.0 mi SE 9.2 mph - N/A   Overcast
8:35 AM 32.0 °F 24.2 °F 19.4 °F 60% 29.68 in 10.0 mi SE 9.2 mph - N/A   Overcast
8:54 AM 32.0 °F 24.8 °F 19.4 °F 60% 29.68 in 10.0 mi SE 8.1 mph - N/A   Overcast
8:55 AM 31.8 °F 24.6 °F 19.4 °F 60% 29.68 in 10.0 mi SE 8.1 mph - N/A   Overcast
9:15 AM 32.0 °F 23.6 °F 19.4 °F 60% 29.67 in 10.0 mi SE 10.4 mph - N/A   Overcast
9:34 AM 33.8 °F 26.4 °F 21.2 °F 60% 29.66 in 10.0 mi SE 9.2 mph 17.3 mph N/A   Overcast
9:35 AM 34.0 °F 26.6 °F 20.7 °F 58% 29.66 in 10.0 mi SE 9.2 mph 17.3 mph N/A   Overcast
9:54 AM 33.8 °F 23.9 °F 19.4 °F 56% 29.63 in 10.0 mi SE 15.0 mph 20.7 mph N/A   Overcast
9:55 AM 34.0 °F 24.2 °F 20.5 °F 58% 29.63 in 10.0 mi SE 15.0 mph 20.7 mph N/A   Overcast
10:14 AM 33.8 °F 24.8 °F 19.4 °F 56% 29.65 in 10.0 mi SE 12.7 mph 17.3 mph N/A   Overcast
10:15 AM 34.0 °F 24.6 °F 20.3 °F 57% 29.65 in 10.0 mi SSE 13.8 mph 17.3 mph N/A   Overcast
10:34 AM 37.4 °F 32.1 °F 21.2 °F 52% 29.66 in 10.0 mi SSE 6.9 mph - N/A   Overcast
10:35 AM 36.5 °F 30.3 °F 22.1 °F 56% 29.66 in 10.0 mi SSE 8.1 mph - N/A   Overcast
10:54 AM 37.4 °F 32.8 °F 23.0 °F 56% 29.65 in 10.0 mi SSE 5.8 mph - N/A   Overcast
10:55 AM 36.5 °F 31.8 °F 23.0 °F 58% 29.65 in 10.0 mi SSE 5.8 mph - N/A   Overcast
11:14 AM 37.4 °F 31.4 °F 24.8 °F 60% 29.64 in 10.0 mi SE 8.1 mph - N/A   Overcast
11:35 AM 37.4 °F 30.8 °F 24.8 °F 60% 29.62 in 10.0 mi SE 9.2 mph - N/A   Overcast
11:54 AM 39.2 °F 32.5 °F 28.4 °F 65% 29.60 in 10.0 mi SSE 10.4 mph 16.1 mph N/A   Overcast
12:13 PM 39.2 °F 31.6 °F 30.2 °F 70% 29.59 in 10.0 mi SSE 12.7 mph 18.4 mph N/A   Overcast
12:15 PM 39.2 °F 31.6 °F 30.0 °F 70% 29.59 in 10.0 mi SE 12.7 mph 18.4 mph N/A   Overcast
12:35 PM 37.8 °F 30.2 °F 29.8 °F 73% 29.57 in 10.0 mi SE 11.5 mph 17.3 mph N/A   Overcast
12:38 PM 37.4 °F 29.8 °F 30.2 °F 75% 29.57 in 10.0 mi SE 11.5 mph 18.4 mph N/A   Overcast
12:53 PM 37.4 °F 30.3 °F 30.2 °F 75% 29.56 in 10.0 mi SE 10.4 mph 23.0 mph N/A   Overcast
12:55 PM 37.8 °F 30.7 °F 31.3 °F 77% 29.55 in 10.0 mi SE 10.4 mph 23.0 mph N/A   Overcast
1:15 PM 36.5 °F 27.8 °F 30.7 °F 80% 29.54 in 10.0 mi SE 13.8 mph 20.7 mph N/A   Overcast
1:19 PM 37.4 °F 29.3 °F 30.2 °F 75% 29.54 in 10.0 mi SE 12.7 mph 20.7 mph N/A   Overcast
1:35 PM 36.5 °F 28.7 °F 30.2 °F 78% 29.53 in 10.0 mi SE 11.5 mph 21.9 mph N/A   Overcast
1:40 PM 37.4 °F 27.5 °F 30.2 °F 75% 29.53 in 10.0 mi ESE 18.4 mph 24.2 mph N/A   Overcast
1:55 PM 36.5 °F 28.7 °F 30.7 °F 80% 29.52 in 10.0 mi ESE 11.5 mph 20.7 mph N/A   Overcast
2:08 PM 37.4 °F 28.5 °F 30.2 °F 75% 29.50 in 10.0 mi ESE 15.0 mph 18.4 mph N/A   Overcast
2:15 PM 36.5 °F 27.0 °F 31.1 °F 81% 29.50 in 10.0 mi SE 16.1 mph 23.0 mph N/A   Overcast
2:33 PM 37.4 °F 28.9 °F 32.0 °F 81% 29.47 in 10.0 mi ESE 13.8 mph 24.2 mph N/A   Overcast
2:35 PM 36.5 °F 26.7 °F 32.0 °F 84% 29.47 in 10.0 mi ESE 17.3 mph 21.9 mph N/A   Overcast
2:53 PM 37.4 °F 28.2 °F 32.0 °F 81% 29.44 in 10.0 mi ESE 16.1 mph 21.9 mph N/A   Overcast
3:14 PM 37.4 °F 30.3 °F 30.2 °F 75% 29.41 in 10.0 mi ESE 10.4 mph 18.4 mph N/A   Overcast
3:34 PM 37.4 °F 29.8 °F 30.2 °F 75% 29.39 in 10.0 mi ESE 11.5 mph 21.9 mph N/A   Overcast
3:54 PM 37.4 °F 27.8 °F 30.2 °F 75% 29.39 in 10.0 mi ESE 17.3 mph 25.3 mph N/A   Overcast
4:13 PM 37.4 °F 29.3 °F 30.2 °F 75% 29.39 in 10.0 mi ESE 12.7 mph 21.9 mph N/A   Overcast
5:15 PM 36.5 °F 27.4 °F 30.6 °F 79% 29.33 in 10.0 mi East 15.0 mph 23.0 mph N/A   Overcast
5:35 PM 36.5 °F 28.2 °F 30.6 °F 79% 29.31 in 10.0 mi East 12.7 mph 26.5 mph N/A   Overcast
5:55 PM 36.5 °F 26.0 °F 31.5 °F 82% 29.28 in 3.0 mi ESE 19.6 mph 29.9 mph N/A Snow Light Snow
6:15 PM 34.0 °F 25.0 °F 31.1 °F 89% 29.26 in 1.0 mi East 12.7 mph 25.3 mph N/A Snow Snow
6:35 PM 32.9 °F 25.9 °F 30.9 °F 92% 29.24 in 0.8 mi ESE 8.1 mph 18.4 mph 0.02 in Snow Heavy Snow
6:55 PM 32.9 °F 24.1 °F 31.1 °F 93% 29.22 in 0.2 mi East 11.5 mph 25.3 mph 0.04 in Snow Heavy Snow
7:15 PM 32.9 °F 24.7 °F 31.1 °F 93% 29.21 in 0.8 mi East 10.4 mph 17.3 mph 0.03 in Snow Snow
7:35 PM 32.0 °F 24.8 °F 30.6 °F 94% 29.16 in 0.8 mi East 8.1 mph 17.3 mph 0.05 in Snow Snow
7:55 PM 32.0 °F 24.2 °F 30.2 °F 93% 29.14 in 1.2 mi East 9.2 mph - 0.07 in Snow Light Snow
8:15 PM 32.2 °F 24.4 °F 30.2 °F 92% 29.10 in 1.8 mi East 9.2 mph 16.1 mph 0.06 in Snow Light Snow
8:35 PM 32.9 °F 23.7 °F 30.4 °F 90% 29.09 in 4.0 mi East 12.7 mph 25.3 mph 0.08 in Snow Light Snow
8:55 PM 32.9 °F 25.9 °F 29.7 °F 88% 29.07 in 7.0 mi East 8.1 mph 21.9 mph 0.08 in   Overcast
9:15 PM 32.9 °F 23.2 °F 29.7 °F 88% 29.06 in 2.5 mi ESE 13.8 mph 20.7 mph 0.01 in Snow Light Snow
9:35 PM 32.0 °F 24.2 °F 29.7 °F 91% 29.03 in 2.5 mi ESE 9.2 mph 16.1 mph 0.03 in Snow Light Snow
9:55 PM 32.0 °F 24.2 °F 29.3 °F 90% 29.01 in 1.2 mi ESE 9.2 mph 19.6 mph 0.04 in Snow Light Snow
10:15 PM 31.8 °F 23.3 °F 29.3 °F 90% 29.00 in 3.0 mi ESE 10.4 mph 17.3 mph 0.02 in Snow Light Snow
10:35 PM 32.0 °F - 29.3 °F 90% 29.00 in 4.0 mi Calm Calm - 0.02 in Snow Light Snow
10:55 PM 31.8 °F 28.5 °F 29.7 °F 92% 28.98 in 0.5 mi North 3.5 mph - 0.06 in Snow Heavy Snow
11:15 PM 31.8 °F 27.3 °F 29.8 °F 92% 28.96 in 1.2 mi North 4.6 mph - 0.01 in Snow Light Snow
11:35 PM 31.8 °F 26.2 °F 30.0 °F 93% 28.95 in 0.8 mi North 5.8 mph - 0.03 in Snow Snow
11:55 PM 31.8 °F 26.2 °F 30.2 °F 94% 28.93 in 0.8 mi North 5.8 mph - 0.05 in Snow Heavy Snow